Odyssea Defender — WDE7022 — position and weather

sailwx.info

Track history (hours):
 
Tides and Currents Weather Stations Pressure Air Temp Water Temp Dewpoint Dewpoint Depression Visibility Wind Speed Wind Dir Waves Ship Positions

Odyssea Defender

Owner: ODYSSEA VESSEL, INC, BERWICK, LA. More information available from US FCC via Universal Licensing System and Coast Guard Vessel Documentation Center.

Last reported at 2016-Jan-23 19:33 UTC. Time now 2016-Feb-12 07:47 UTC.
Position N 29°21' W 094°48'.
Warning: this ship's position is 19 days out of date.

Length 60 m; draft 3.3 m.

Type: Ship. MMSI: 367387930.

Date/timePositionNaut miles runAvg speedWind from/ knotsBaromVisibWave heightAir tempDewpointWater temp
2016-Jan-23 19:33N 29°21' W 094°48'9 9.5
2016-Jan-23 18:33N 29°30' W 094°52'10 9.7
2016-Jan-23 17:34N 29°38' W 094°58'9 8.7
2016-Jan-23 16:33N 29°45' W 095°04'2 0.1
2016-Jan-22 08:33N 29°46' W 095°07'5 5.4
2016-Jan-22 07:33N 29°43' W 095°01'8 7.8
2016-Jan-22 06:33N 29°36' W 094°57'8 8.3
2016-Jan-22 05:33N 29°29' W 094°52'9 7.5
2016-Jan-22 04:19N 29°21' W 094°47'  
2016-Jan-16 10:07N 29°09' W 090°14'0 0.0
2016-Jan-16 09:32N 29°09' W 090°14'0 0.0
2016-Jan-16 08:33N 29°09' W 090°14'  
Track history (hours):
 
Tides and Currents Weather Stations Pressure Air Temp Water Temp Dewpoint Dewpoint Depression Visibility Wind Speed Wind Dir Waves Ship Positions

Odyssea Defender

Owner: ODYSSEA VESSEL, INC, BERWICK, LA. More information available from US FCC via Universal Licensing System and Coast Guard Vessel Documentation Center.

Last reported at 2016-Jan-23 19:33 UTC. Time now 2016-Feb-12 07:47 UTC.
Position N 29°21' W 094°48'.
Warning: this ship's position is 19 days out of date.

Length 60 m; draft 3.3 m.

Type: Ship. MMSI: 367387930.

Date/timePositionNaut miles runAvg speedWind from/ knotsBaromVisibWave heightAir tempDewpointWater temp
2016-Jan-23 19:33N 29°21' W 094°48'9 9.5
2016-Jan-23 18:33N 29°30' W 094°52'10 9.7
2016-Jan-23 17:34N 29°38' W 094°58'9 8.7
2016-Jan-23 16:33N 29°45' W 095°04'2 0.1
2016-Jan-22 08:33N 29°46' W 095°07'5 5.4
2016-Jan-22 07:33N 29°43' W 095°01'8 7.8
2016-Jan-22 06:33N 29°36' W 094°57'8 8.3
2016-Jan-22 05:33N 29°29' W 094°52'9 7.5
2016-Jan-22 04:19N 29°21' W 094°47'  
2016-Jan-16 10:07N 29°09' W 090°14'0 0.0
2016-Jan-16 09:32N 29°09' W 090°14'0 0.0
2016-Jan-16 08:33N 29°09' W 090°14'  

Dump ship's entire track history